KCAE

Columbia Metropolitan Airport

Columbia, South Carolina, USA
METAR KCAE 232256Z 27013KT 10SM SCT250 15/01 A2993 RMK AO2 SLP133 T01500011
Observed Flight Rules
Jan-23 @ 22:56 UTC (34 minutes ago) Visual Flight Rules
Wind Visibility Clouds
270° at 13 knots 10 miles
  • Scattered at 25,000' AGL
Temperatures Readings
Current 15°C / 59°F
Dewpoint 1°C / 34°F
Humidity 39%
Altimeter 29.93" Hg
Pressure 1013.3 hPa
Elevation 70
METAR KCAE 232256Z 27013KT 10SM SCT250 15/01 A2993 RMK AO2 SLP133 T01500011
Observed Flight Rules
Jan-23 @ 22:56 UTC
(34 minutes ago)
VFR
Wind Visibility
270° at 13 knots 10 miles
Clouds
  • Scattered at 25,000' AGL
Temperature Dewpoint
15°C / 59°F 1°C / 34°F
Humidity Altimeter Pressure
39% 29.93" Hg 1013.3 hPa